Norwalk, WI (54648)

7:11 PM CDT on August 21, 2014 (GMT -0500)
KWIONTAR2 | Change Station
CLOSE
Current Station
Personal Weather Station
Location: Ontario, WI
Elevation: 938 ft
Nearby Weather Stations

Elev 938 ft 43.72 °N, 90.59 °W | Updated 23 seconds ago

Mostly Cloudy
Mostly Cloudy
80.5 °F
Feels Like 80 °F
N
0.0
Wind Variable Wind from ENE
Gusts 0.0 mph

Today
High -- | Low -- °F
--% Chance of Precip.
Yesterday
High -- | Low -- °F
Precip. -- in
6:13 AM 7:57 PM
Waning Crescent, 11% visible
Pressure 29.89 in
Visibility 10.0 miles
Clouds Scattered Clouds 3300 ft
Mostly Cloudy 7000 ft
Heat Index 80 °F
Dew Point 47 °F
Humidity 31%
Rainfall 0.29 in
Snow Depth Not available.
UV 0 out of 12
Pollen 6.80 out of 12
Air Quality Not available.
Flu Activity Not available.
METAR KCMY 212355Z AUTO 17003KT 10SM SCT033 BKN070 26/21 A2989 RMK AO2 T02570205 10274 20246

More Conditions Fewer Conditions

Pressure 29.89 in
Visibility 10.0 miles
Clouds Scattered Clouds 3300 ft
Mostly Cloudy 7000 ft
Heat Index 80 °F
Dew Point 47 °F
Humidity 31%
Rainfall 0.29 in
Snow Depth Not available.
UV 0 out of 12
Pollen 6.80 out of 12
Air Quality Not available.
Flu Activity Not available.
METAR KCMY 212355Z AUTO 17003KT 10SM SCT033 BKN070 26/21 A2989 RMK AO2 T02570205 10274 20246

More Conditions Fewer Conditions

10-Day Weather Forecast

Almanac

Astronomy

Aug. 21, 2014 Rise Set
Actual Time 6:13 AM CDT 7:57 PM CDT
Civil Twilight 5:43 AM CDT 8:27 PM CDT
Nautical Twilight 5:05 AM CDT 9:04 PM CDT
Astronomical Twilight 4:25 AM CDT 9:44 PM CDT
Moon 2:40 AM CDT (8/21) 5:28 PM CDT (8/21)
Length of Visible Light 14h 44m
Length of Day
13h 43m
Tomorrow will be 2m 47s shorter.
Waning Crescent, 11% of the Moon is Illuminated
Today
Waning Crescent
Aug 25
New
Sep 2
First Quarter
Sep 8
Full
Sep 15
Last Quarter

Today's Extremes

State Highs State Lows

Community

WunderPhotos

Upload Photos

1,746,065 photos uploaded!

Nearby

Snow Depth

Station Depth Elevation
No new snow has been reported.

Earthquake Activity

City Distance Mag. Time & Date
No recent earthquake activity has been reported nearby.
Minimum magnitude displayed is 2.5.

Coastal Water Temperatures

Place Temperature
No Stations Reporting

Nearby Weather Stations